createdAt,value
2022-07-29T00:00:50.124Z,2.1
2022-07-29T00:02:50.148Z,1.9
2022-07-29T00:04:50.260Z,1.9
2022-07-29T00:06:49.987Z,2.3
2022-07-29T00:08:49.879Z,2.1
2022-07-29T00:10:49.768Z,2.0
2022-07-29T00:12:49.989Z,1.9
2022-07-29T00:14:49.835Z,1.9
2022-07-29T00:16:50.401Z,2.0
2022-07-29T00:18:49.993Z,2.2
2022-07-29T00:20:50.858Z,2.0
2022-07-29T00:22:50.358Z,2.1
2022-07-29T00:24:50.419Z,2.2
2022-07-29T00:26:50.206Z,2.2
2022-07-29T00:28:50.287Z,2.1
2022-07-29T00:30:50.153Z,1.9
2022-07-29T00:32:50.163Z,2.1
2022-07-29T00:34:49.723Z,2.3
2022-07-29T00:36:49.944Z,2.3
2022-07-29T00:38:49.883Z,2.1
2022-07-29T00:40:49.813Z,2.1
2022-07-29T00:42:49.700Z,1.8
2022-07-29T00:44:50.592Z,1.8
2022-07-29T00:46:50.054Z,2.2
2022-07-29T00:48:50.220Z,1.7
2022-07-29T00:50:49.699Z,2.1
2022-07-29T00:52:49.695Z,2.0
2022-07-29T00:54:50.554Z,2.0
2022-07-29T00:56:49.745Z,1.9
2022-07-29T00:58:50.597Z,2.1
2022-07-29T01:00:50.626Z,2.2
2022-07-29T01:02:49.764Z,2.3
2022-07-29T01:04:50.189Z,2.3
2022-07-29T01:06:50.553Z,1.9
2022-07-29T01:08:49.699Z,2.0
2022-07-29T01:10:49.711Z,1.8
2022-07-29T01:12:49.880Z,1.8
2022-07-29T01:14:50.668Z,2.3
2022-07-29T01:16:50.945Z,1.7
2022-07-29T01:18:49.826Z,1.8
2022-07-29T01:20:49.959Z,2.0
2022-07-29T01:22:50.119Z,2.0
2022-07-29T01:24:50.214Z,1.8
2022-07-29T01:26:50.295Z,1.8
2022-07-29T01:28:51.280Z,1.8
2022-07-29T01:30:53.089Z,2.1
2022-07-29T01:32:50.113Z,2.1
2022-07-29T01:34:50.597Z,1.9
2022-07-29T01:36:50.662Z,2.0
2022-07-29T01:38:50.613Z,2.2
2022-07-29T01:40:50.634Z,2.2
2022-07-29T01:42:50.426Z,2.2
2022-07-29T01:44:50.457Z,2.2
2022-07-29T01:46:50.698Z,1.8
2022-07-29T01:48:50.279Z,2.1
2022-07-29T01:50:50.536Z,1.9
2022-07-29T01:52:50.502Z,1.9
2022-07-29T01:54:50.388Z,2.1
2022-07-29T01:56:50.591Z,2.2
2022-07-29T01:58:50.520Z,2.3
2022-07-29T02:00:49.752Z,2.0
2022-07-29T02:02:50.595Z,2.0
2022-07-29T02:04:50.097Z,2.3
2022-07-29T02:06:49.843Z,2.0
2022-07-29T02:08:50.163Z,1.9
2022-07-29T02:10:49.982Z,1.9
2022-07-29T02:12:51.266Z,2.2
2022-07-29T02:14:50.160Z,2.0
2022-07-29T02:16:50.356Z,1.9
2022-07-29T02:18:50.657Z,2.1
2022-07-29T02:20:50.465Z,2.1
2022-07-29T02:22:50.315Z,2.1
2022-07-29T02:24:50.267Z,2.3
2022-07-29T02:26:50.411Z,2.5
2022-07-29T02:28:50.367Z,2.2
2022-07-29T02:30:50.499Z,2.2
2022-07-29T02:32:49.688Z,2.3
2022-07-29T02:34:49.966Z,2.3
2022-07-29T02:36:50.058Z,2.0
2022-07-29T02:38:49.931Z,2.4
2022-07-29T02:40:49.842Z,2.4
2022-07-29T02:42:49.690Z,2.1
2022-07-29T02:44:50.491Z,2.7
2022-07-29T02:46:50.695Z,2.2
2022-07-29T02:48:50.485Z,2.4
2022-07-29T02:50:50.582Z,2.4
2022-07-29T02:52:50.495Z,2.6
2022-07-29T02:54:50.475Z,2.6
2022-07-29T02:56:50.535Z,2.3
2022-07-29T02:58:50.383Z,2.3
2022-07-29T03:00:50.239Z,2.3
2022-07-29T03:02:50.146Z,2.2
2022-07-29T03:04:50.642Z,2.3
2022-07-29T03:06:50.140Z,2.4
2022-07-29T03:08:50.039Z,2.4
2022-07-29T03:10:49.816Z,2.4
2022-07-29T03:12:49.818Z,2.4
2022-07-29T03:14:49.673Z,2.4
2022-07-29T03:16:49.808Z,2.3
2022-07-29T03:18:49.999Z,2.3
2022-07-29T03:20:49.915Z,2.4
2022-07-29T03:22:49.757Z,2.4
2022-07-29T03:24:49.676Z,3.2
2022-07-29T03:26:49.838Z,3.2
2022-07-29T03:28:49.902Z,2.4
2022-07-29T03:30:51.181Z,2.5
2022-07-29T03:32:52.657Z,2.5
2022-07-29T03:34:49.812Z,2.5
2022-07-29T03:36:50.190Z,2.4
2022-07-29T03:38:50.054Z,2.4
2022-07-29T03:40:49.812Z,2.4
2022-07-29T03:42:50.590Z,2.4
2022-07-29T03:44:50.503Z,2.5
2022-07-29T03:46:50.740Z,2.5
2022-07-29T03:48:49.951Z,2.3
2022-07-29T03:50:50.079Z,2.3
2022-07-29T03:52:49.999Z,2.2
2022-07-29T03:54:50.054Z,2.0
2022-07-29T03:56:50.223Z,2.0
2022-07-29T03:58:50.227Z,2.2
2022-07-29T04:00:50.220Z,2.4
2022-07-29T04:02:50.412Z,2.5
2022-07-29T04:04:49.873Z,2.5
2022-07-29T04:06:49.956Z,2.5
2022-07-29T04:08:50.002Z,2.4
2022-07-29T04:10:50.024Z,2.4
2022-07-29T04:12:49.981Z,2.3
2022-07-29T04:14:49.910Z,2.3
2022-07-29T04:16:50.122Z,2.5
2022-07-29T04:18:50.081Z,2.4
2022-07-29T04:20:49.889Z,2.4
2022-07-29T04:22:49.801Z,2.4
2022-07-29T04:24:50.654Z,2.5
2022-07-29T04:26:50.089Z,2.7
2022-07-29T04:28:50.104Z,2.5
2022-07-29T04:30:50.264Z,2.4
2022-07-29T04:32:50.238Z,2.2
2022-07-29T04:34:49.782Z,2.2
2022-07-29T04:36:50.028Z,2.2
2022-07-29T04:38:50.138Z,2.6
2022-07-29T04:40:50.221Z,2.7
2022-07-29T04:42:50.674Z,2.6
2022-07-29T04:44:50.603Z,2.6
2022-07-29T04:46:50.381Z,2.5
2022-07-29T04:48:50.444Z,2.6
2022-07-29T04:50:49.906Z,2.6
2022-07-29T04:52:49.904Z,2.8
2022-07-29T04:54:49.959Z,2.8
2022-07-29T04:56:50.121Z,2.9
2022-07-29T04:58:49.843Z,2.7
2022-07-29T05:00:50.153Z,2.7
2022-07-29T05:02:50.575Z,2.8
2022-07-29T05:04:49.808Z,3.0
2022-07-29T05:06:49.985Z,3.7
2022-07-29T05:08:50.006Z,3.2
2022-07-29T05:10:49.968Z,2.8
2022-07-29T05:12:49.872Z,2.8
2022-07-29T05:14:49.962Z,3.0
2022-07-29T05:16:50.259Z,2.8
2022-07-29T05:18:50.221Z,2.8
2022-07-29T05:20:50.696Z,2.8
2022-07-29T05:22:49.833Z,3.0
2022-07-29T05:24:49.852Z,3.3
2022-07-29T05:26:49.906Z,3.2
2022-07-29T05:28:49.727Z,3.2
2022-07-29T05:30:51.062Z,3.2
2022-07-29T05:32:49.689Z,3.2
2022-07-29T05:34:51.878Z,3.4
2022-07-29T05:36:50.062Z,3.2
2022-07-29T05:38:49.980Z,2.9
2022-07-29T05:40:49.944Z,3.2
2022-07-29T05:42:49.899Z,3.2
2022-07-29T05:44:49.905Z,3.3
2022-07-29T05:46:50.326Z,3.0
2022-07-29T05:48:50.525Z,2.1
2022-07-29T05:50:49.715Z,2.3
2022-07-29T05:52:50.598Z,2.3
2022-07-29T05:54:50.512Z,2.4
2022-07-29T05:56:49.711Z,2.5
2022-07-29T05:58:49.725Z,2.5
2022-07-29T06:00:49.725Z,2.4
2022-07-29T06:02:50.622Z,2.3
2022-07-29T06:04:50.189Z,2.6
2022-07-29T06:06:49.835Z,2.2
2022-07-29T06:08:49.713Z,2.2
2022-07-29T06:10:50.567Z,2.4
2022-07-29T06:12:50.626Z,2.4
2022-07-29T06:14:54.429Z,2.8
2022-07-29T06:16:49.997Z,2.4
2022-07-29T06:18:50.206Z,2.4
2022-07-29T06:20:50.169Z,2.4
2022-07-29T06:22:51.241Z,2.2
2022-07-29T06:24:50.570Z,2.2
2022-07-29T06:26:50.649Z,2.3
2022-07-29T06:28:50.678Z,2.6
2022-07-29T06:30:50.800Z,2.6
2022-07-29T06:32:50.058Z,2.1
2022-07-29T06:34:51.517Z,2.5
2022-07-29T06:36:49.729Z,2.5
2022-07-29T06:38:52.187Z,2.5
2022-07-29T06:40:50.520Z,2.6
2022-07-29T06:42:50.373Z,2.3
2022-07-29T06:44:50.228Z,2.3
2022-07-29T06:46:50.492Z,2.4
2022-07-29T06:48:50.520Z,2.4
2022-07-29T06:50:50.372Z,2.3
2022-07-29T06:52:50.285Z,2.3
2022-07-29T06:54:50.229Z,2.2
2022-07-29T06:56:50.512Z,2.2
2022-07-29T06:58:50.464Z,2.5
2022-07-29T07:00:50.413Z,2.5
2022-07-29T07:02:49.861Z,2.5
2022-07-29T07:04:50.447Z,2.5
2022-07-29T07:06:49.847Z,2.5
2022-07-29T07:08:50.660Z,2.5
2022-07-29T07:10:50.382Z,2.7
2022-07-29T07:12:50.341Z,2.4
2022-07-29T07:14:50.342Z,2.3
2022-07-29T07:16:52.828Z,2.6
2022-07-29T07:18:49.719Z,2.6
2022-07-29T07:20:49.915Z,2.4
2022-07-29T07:22:50.438Z,2.9
2022-07-29T07:24:50.435Z,2.7
2022-07-29T07:26:50.587Z,2.8
2022-07-29T07:28:50.441Z,2.8
2022-07-29T07:30:50.437Z,2.6
2022-07-29T07:32:50.378Z,2.7
2022-07-29T07:34:50.658Z,2.5
2022-07-29T07:36:49.875Z,2.5
2022-07-29T07:38:49.958Z,2.6
2022-07-29T07:40:49.862Z,2.4
2022-07-29T07:42:50.638Z,2.6
2022-07-29T07:45:12.918Z,2.6
2022-07-29T07:46:49.724Z,2.6
2022-07-29T07:48:50.639Z,2.5
2022-07-29T07:50:49.906Z,2.8
2022-07-29T07:52:50.074Z,2.6
2022-07-29T07:54:50.167Z,2.6
2022-07-29T07:56:53.532Z,2.7
2022-07-29T07:58:50.640Z,2.7
2022-07-29T08:00:50.661Z,2.7
2022-07-29T08:02:49.930Z,2.6
2022-07-29T08:04:50.437Z,2.6
2022-07-29T08:06:49.724Z,2.7
2022-07-29T08:08:50.060Z,2.7
2022-07-29T08:10:49.987Z,2.6
2022-07-29T08:12:50.346Z,2.7
2022-07-29T08:14:50.213Z,2.7
2022-07-29T08:16:50.694Z,2.6
2022-07-29T08:18:50.014Z,3.3
2022-07-29T08:20:50.016Z,2.8
2022-07-29T08:22:49.962Z,2.8
2022-07-29T08:24:49.728Z,2.8
2022-07-29T08:26:49.899Z,3.0
2022-07-29T08:28:49.781Z,3.0
2022-07-29T08:30:51.553Z,3.0
2022-07-29T08:32:55.821Z,2.8
2022-07-29T08:34:50.018Z,2.8
2022-07-29T08:36:51.626Z,2.9
2022-07-29T08:38:50.807Z,2.7
2022-07-29T08:40:50.656Z,2.6
2022-07-29T08:42:49.683Z,2.8
2022-07-29T08:44:50.637Z,2.8
2022-07-29T08:46:49.764Z,3.0
2022-07-29T08:48:49.958Z,2.4
2022-07-29T08:50:50.253Z,2.8
2022-07-29T08:52:50.193Z,2.9
2022-07-29T08:54:50.033Z,2.9
2022-07-29T08:56:50.377Z,2.7
2022-07-29T08:58:52.745Z,2.6
2022-07-29T09:00:50.060Z,2.6
2022-07-29T09:02:49.783Z,2.6
2022-07-29T09:04:50.366Z,2.7
2022-07-29T09:06:50.586Z,2.7
2022-07-29T09:08:50.526Z,2.9
2022-07-29T09:10:50.406Z,2.8
2022-07-29T09:12:50.561Z,2.6
2022-07-29T09:14:50.462Z,2.6
2022-07-29T09:17:00.944Z,2.6
2022-07-29T09:18:50.501Z,2.8
2022-07-29T09:20:50.329Z,2.7
2022-07-29T09:22:50.292Z,2.9
2022-07-29T09:24:50.193Z,2.9
2022-07-29T09:26:50.423Z,3.0
2022-07-29T09:28:50.279Z,3.1
2022-07-29T09:30:50.346Z,2.8
2022-07-29T09:32:50.248Z,2.8
2022-07-29T09:34:49.997Z,2.7
2022-07-29T09:36:50.165Z,2.7
2022-07-29T09:38:50.270Z,2.6
2022-07-29T09:40:50.194Z,2.8
2022-07-29T09:42:50.031Z,2.7
2022-07-29T09:44:50.129Z,2.7
2022-07-29T09:46:50.200Z,2.8
2022-07-29T09:48:50.418Z,2.8
2022-07-29T09:50:50.504Z,2.9
2022-07-29T09:52:50.487Z,2.9
2022-07-29T09:54:50.388Z,2.9
2022-07-29T09:56:50.550Z,2.8
2022-07-29T09:58:50.605Z,2.8
2022-07-29T10:00:50.950Z,2.7
2022-07-29T10:02:50.391Z,2.7
2022-07-29T10:04:50.009Z,2.9
2022-07-29T10:06:50.130Z,3.3
2022-07-29T10:08:49.959Z,3.0
2022-07-29T10:10:49.892Z,2.7
2022-07-29T10:12:49.728Z,2.7
2022-07-29T10:14:49.770Z,3.0
2022-07-29T10:16:49.928Z,2.7
2022-07-29T10:18:50.835Z,3.2
2022-07-29T10:20:50.543Z,3.0
2022-07-29T10:22:54.153Z,3.0
2022-07-29T10:24:50.439Z,3.5
2022-07-29T10:26:49.684Z,3.1
2022-07-29T10:28:49.698Z,3.1
2022-07-29T10:30:50.409Z,3.1
2022-07-29T10:32:54.522Z,3.1
2022-07-29T10:34:49.837Z,2.9
2022-07-29T10:36:49.899Z,2.8
2022-07-29T10:38:49.977Z,2.8
2022-07-29T10:40:50.203Z,2.8
2022-07-29T10:42:51.514Z,3.0
2022-07-29T10:44:50.476Z,3.1
2022-07-29T10:46:49.824Z,3.1
2022-07-29T10:48:50.136Z,3.1
2022-07-29T10:50:50.772Z,3.1
2022-07-29T10:52:51.051Z,3.1
2022-07-29T10:54:50.055Z,3.1
2022-07-29T10:56:53.590Z,3.3
2022-07-29T10:58:52.998Z,3.3
2022-07-29T11:00:50.657Z,2.8
2022-07-29T11:02:51.015Z,3.2
2022-07-29T11:04:50.533Z,3.2
2022-07-29T11:06:50.504Z,3.1
2022-07-29T11:08:50.533Z,3.1
2022-07-29T11:10:50.976Z,3.1
2022-07-29T11:12:49.780Z,2.8
2022-07-29T11:14:50.623Z,3.1
2022-07-29T11:16:49.779Z,3.0
2022-07-29T11:18:50.031Z,3.0
2022-07-29T11:20:50.186Z,3.0
2022-07-29T11:22:49.693Z,3.1
2022-07-29T11:24:50.634Z,3.2
2022-07-29T11:26:50.186Z,3.2
2022-07-29T11:28:50.111Z,3.2
2022-07-29T11:30:49.874Z,3.1
2022-07-29T11:32:50.433Z,3.2
2022-07-29T11:34:49.954Z,3.4
2022-07-29T11:36:50.744Z,3.3
2022-07-29T11:38:49.741Z,3.3
2022-07-29T11:40:49.880Z,3.6
2022-07-29T11:42:52.471Z,3.4
2022-07-29T11:44:50.575Z,3.4
2022-07-29T11:46:50.055Z,3.8
2022-07-29T11:48:52.343Z,3.8
2022-07-29T11:50:49.846Z,3.3
2022-07-29T11:52:50.417Z,4.4
2022-07-29T11:55:00.648Z,3.8
2022-07-29T11:56:50.661Z,3.8
2022-07-29T11:58:51.261Z,3.8
2022-07-29T12:00:50.570Z,3.5
2022-07-29T12:02:49.689Z,3.5
2022-07-29T12:04:50.214Z,3.5
2022-07-29T12:06:51.017Z,3.5
2022-07-29T12:08:50.323Z,3.5
2022-07-29T12:10:50.069Z,3.4
2022-07-29T12:12:50.007Z,3.3
2022-07-29T12:14:49.717Z,3.3
2022-07-29T12:16:50.220Z,3.3
2022-07-29T12:18:50.361Z,3.3
2022-07-29T12:20:50.175Z,3.5
2022-07-29T12:22:50.099Z,3.5
2022-07-29T12:25:02.282Z,3.3
2022-07-29T12:26:50.555Z,3.3
2022-07-29T12:28:50.118Z,4.1
2022-07-29T12:30:51.906Z,3.5
2022-07-29T12:32:49.847Z,3.2
2022-07-29T12:34:50.325Z,3.9
2022-07-29T12:36:50.645Z,3.9
2022-07-29T12:38:53.970Z,3.3
2022-07-29T12:40:50.015Z,3.6
2022-07-29T12:42:49.850Z,4.0
2022-07-29T12:44:49.844Z,4.0
2022-07-29T12:46:50.296Z,6.5
2022-07-29T12:48:50.408Z,3.1
2022-07-29T12:50:50.535Z,3.3
2022-07-29T12:52:50.532Z,3.5
2022-07-29T12:54:51.991Z,3.5
2022-07-29T12:56:50.379Z,3.5
2022-07-29T12:58:51.680Z,3.3
2022-07-29T13:00:50.696Z,3.2
2022-07-29T13:02:50.162Z,3.3
2022-07-29T13:04:49.778Z,3.3
2022-07-29T13:06:51.327Z,3.0
2022-07-29T13:08:50.118Z,3.0
2022-07-29T13:10:50.035Z,4.7
2022-07-29T13:12:50.041Z,3.4
2022-07-29T13:14:49.890Z,3.4
2022-07-29T13:16:50.206Z,3.4
2022-07-29T13:18:50.394Z,3.5
2022-07-29T13:20:50.353Z,2.9
2022-07-29T13:22:50.411Z,2.9
2022-07-29T13:24:50.203Z,3.0
2022-07-29T13:26:50.483Z,3.7
2022-07-29T13:28:50.492Z,3.1
2022-07-29T13:30:50.557Z,3.2
2022-07-29T13:32:50.625Z,3.2
2022-07-29T13:34:49.973Z,3.2
2022-07-29T13:36:50.110Z,3.4
2022-07-29T13:38:50.015Z,3.4
2022-07-29T13:40:49.967Z,3.4
2022-07-29T13:42:49.866Z,3.2
2022-07-29T13:44:49.926Z,3.3
2022-07-29T13:46:50.363Z,3.3
2022-07-29T13:48:50.229Z,3.1
2022-07-29T13:50:50.344Z,3.8
2022-07-29T13:52:50.374Z,3.8
2022-07-29T13:54:50.306Z,4.0
2022-07-29T13:56:50.468Z,3.7
2022-07-29T13:58:50.330Z,3.4
2022-07-29T14:00:50.427Z,3.4
2022-07-29T14:02:50.564Z,3.4
2022-07-29T14:04:50.361Z,3.8
2022-07-29T14:06:50.127Z,3.5
2022-07-29T14:08:50.091Z,4.1
2022-07-29T14:10:51.450Z,4.1
2022-07-29T14:12:50.320Z,3.5
2022-07-29T14:14:50.291Z,3.1
2022-07-29T14:16:52.600Z,3.3
2022-07-29T14:18:50.527Z,3.3
2022-07-29T14:20:50.505Z,3.1
2022-07-29T14:22:50.514Z,3.1
2022-07-29T14:24:50.400Z,3.3
2022-07-29T14:26:49.814Z,5.9
2022-07-29T14:28:50.149Z,9.2
2022-07-29T14:30:50.274Z,9.2
2022-07-29T14:32:50.317Z,6.3
2022-07-29T14:34:49.817Z,6.2
2022-07-29T14:36:49.974Z,5.3
2022-07-29T14:38:49.921Z,4.9
2022-07-29T14:40:51.103Z,4.9
2022-07-29T14:42:50.139Z,4.5
2022-07-29T14:44:50.115Z,4.7
2022-07-29T14:46:50.544Z,4.7
2022-07-29T14:48:50.826Z,4.8
2022-07-29T14:50:50.206Z,4.8
2022-07-29T14:52:50.016Z,4.8
2022-07-29T14:54:50.016Z,4.8
2022-07-29T14:56:50.146Z,4.8
2022-07-29T14:58:52.216Z,5.3
2022-07-29T15:00:50.040Z,5.3
2022-07-29T15:03:02.145Z,5.2
2022-07-29T15:04:49.728Z,5.2
2022-07-29T15:06:50.017Z,4.5
2022-07-29T15:08:49.944Z,5.0
2022-07-29T15:10:50.015Z,5.0
2022-07-29T15:12:49.871Z,5.0
2022-07-29T15:14:50.062Z,5.0
2022-07-29T15:16:53.057Z,5.6
2022-07-29T15:18:50.389Z,5.6
2022-07-29T15:20:50.303Z,5.8
2022-07-29T15:22:50.369Z,5.3
2022-07-29T15:24:50.245Z,6.0
2022-07-29T15:26:50.009Z,6.0
2022-07-29T15:28:49.969Z,6.1
2022-07-29T15:30:50.050Z,6.1
2022-07-29T15:32:56.152Z,6.1
2022-07-29T15:34:49.945Z,6.0
2022-07-29T15:36:53.454Z,6.1
2022-07-29T15:38:50.364Z,6.1
2022-07-29T15:40:49.850Z,5.7
2022-07-29T15:42:49.788Z,5.9
2022-07-29T15:44:49.688Z,6.9
2022-07-29T15:46:49.934Z,6.9
2022-07-29T15:48:49.978Z,6.4
2022-07-29T15:50:50.156Z,6.5
2022-07-29T15:52:50.105Z,5.9
2022-07-29T15:54:50.063Z,6.6
2022-07-29T15:56:50.303Z,6.6
2022-07-29T15:58:50.338Z,7.1
2022-07-29T16:00:50.358Z,6.9
2022-07-29T16:02:50.637Z,6.4
2022-07-29T16:04:50.290Z,5.6
2022-07-29T16:06:50.501Z,5.6
2022-07-29T16:08:50.357Z,5.4
2022-07-29T16:10:50.217Z,5.3
2022-07-29T16:12:50.222Z,5.3
2022-07-29T16:14:50.359Z,6.0
2022-07-29T16:16:50.250Z,6.0
2022-07-29T16:18:50.646Z,5.8
2022-07-29T16:20:50.676Z,6.2
2022-07-29T16:22:50.629Z,5.7
2022-07-29T16:24:50.431Z,5.3
2022-07-29T16:26:49.926Z,5.3
2022-07-29T16:28:52.016Z,5.5
2022-07-29T16:30:50.113Z,5.9
2022-07-29T16:32:50.314Z,5.9
2022-07-29T16:34:49.853Z,4.8
2022-07-29T16:36:50.705Z,4.8
2022-07-29T16:38:49.868Z,4.5
2022-07-29T16:40:50.170Z,4.4
2022-07-29T16:42:50.646Z,4.4
2022-07-29T16:44:50.622Z,4.4
2022-07-29T16:46:50.125Z,4.4
2022-07-29T16:48:50.396Z,3.8
2022-07-29T16:50:50.571Z,4.1
2022-07-29T16:52:50.550Z,4.1
2022-07-29T16:54:50.423Z,3.8
2022-07-29T16:56:49.747Z,3.8
2022-07-29T16:58:50.602Z,4.2
2022-07-29T17:00:51.815Z,4.4
2022-07-29T17:02:50.123Z,4.4
2022-07-29T17:04:50.431Z,4.1
2022-07-29T17:06:50.359Z,4.1
2022-07-29T17:08:50.333Z,4.6
2022-07-29T17:10:50.335Z,4.5
2022-07-29T17:12:50.250Z,4.7
2022-07-29T17:14:50.247Z,4.7
2022-07-29T17:17:01.911Z,4.4
2022-07-29T17:18:50.313Z,4.4
2022-07-29T17:20:50.239Z,4.0
2022-07-29T17:22:50.246Z,4.2
2022-07-29T17:24:50.047Z,4.2
2022-07-29T17:26:50.321Z,4.1
2022-07-29T17:28:50.106Z,4.2
2022-07-29T17:30:50.122Z,4.2
2022-07-29T17:32:50.086Z,4.2
2022-07-29T17:34:50.584Z,4.2
2022-07-29T17:36:49.816Z,4.3
2022-07-29T17:38:49.742Z,4.0
2022-07-29T17:40:49.889Z,4.0
2022-07-29T17:42:49.826Z,4.0
2022-07-29T17:44:49.964Z,3.9
2022-07-29T17:46:51.857Z,3.7
2022-07-29T17:48:50.093Z,3.6
2022-07-29T17:50:50.119Z,4.1
2022-07-29T17:52:49.949Z,4.1
2022-07-29T17:54:49.909Z,3.9
2022-07-29T17:56:50.082Z,3.8
2022-07-29T17:58:50.070Z,3.4
2022-07-29T18:00:50.123Z,3.9
2022-07-29T18:02:50.360Z,3.9
2022-07-29T18:04:50.915Z,3.9
2022-07-29T18:06:50.186Z,4.3
2022-07-29T18:08:50.004Z,4.6
2022-07-29T18:10:49.932Z,4.6
2022-07-29T18:12:49.873Z,4.5
2022-07-29T18:14:49.873Z,4.6
2022-07-29T18:16:50.260Z,4.9
2022-07-29T18:18:50.575Z,4.6
2022-07-29T18:20:50.558Z,4.6
2022-07-29T18:22:50.419Z,4.5
2022-07-29T18:24:50.383Z,4.6
2022-07-29T18:26:50.509Z,4.5
2022-07-29T18:28:49.858Z,4.2
2022-07-29T18:30:50.667Z,3.7
2022-07-29T18:33:20.073Z,3.7
2022-07-29T18:34:50.595Z,3.7
2022-07-29T18:36:49.876Z,3.8
2022-07-29T18:38:50.602Z,4.1
2022-07-29T18:40:50.572Z,4.1
2022-07-29T18:42:50.562Z,3.9
2022-07-29T18:44:50.307Z,3.9
2022-07-29T18:46:50.566Z,4.1
2022-07-29T18:48:50.197Z,4.3
2022-07-29T18:50:50.355Z,4.3
2022-07-29T18:52:50.241Z,4.0
2022-07-29T18:54:50.269Z,4.0
2022-07-29T18:56:50.532Z,4.2
2022-07-29T18:58:50.537Z,3.9
2022-07-29T19:00:50.435Z,3.9
2022-07-29T19:02:50.695Z,4.0
2022-07-29T19:04:50.177Z,4.1
2022-07-29T19:06:50.360Z,4.2
2022-07-29T19:08:50.438Z,4.5
2022-07-29T19:10:50.299Z,4.5
2022-07-29T19:12:50.535Z,4.5
2022-07-29T19:14:50.366Z,4.6
2022-07-29T19:16:50.509Z,4.9
2022-07-29T19:18:50.436Z,4.2
2022-07-29T19:20:50.494Z,4.2
2022-07-29T19:22:50.399Z,4.2
2022-07-29T19:24:50.473Z,4.0
2022-07-29T19:26:50.570Z,4.7
2022-07-29T19:28:50.553Z,4.7
2022-07-29T19:30:50.672Z,4.7
2022-07-29T19:32:49.989Z,4.6
2022-07-29T19:34:50.697Z,4.6
2022-07-29T19:36:50.063Z,4.5
2022-07-29T19:38:50.301Z,4.5
2022-07-29T19:40:50.126Z,5.3
2022-07-29T19:42:50.270Z,6.0
2022-07-29T19:44:50.151Z,5.5
2022-07-29T19:46:50.368Z,5.5
2022-07-29T19:48:49.995Z,5.5
2022-07-29T19:50:50.241Z,6.0
2022-07-29T19:52:50.153Z,6.7
2022-07-29T19:54:49.998Z,6.8
2022-07-29T19:56:50.212Z,6.8
2022-07-29T19:58:52.111Z,6.7
2022-07-29T20:00:49.658Z,7.6
2022-07-29T20:02:49.820Z,7.1
2022-07-29T20:04:50.465Z,7.1
2022-07-29T20:06:49.817Z,7.7
2022-07-29T20:08:49.697Z,7.7
2022-07-29T20:10:49.750Z,7.8
2022-07-29T20:12:55.169Z,8.3
2022-07-29T20:14:50.427Z,8.6
2022-07-29T20:16:50.641Z,8.6
2022-07-29T20:18:50.547Z,8.6
2022-07-29T20:20:50.508Z,8.5
2022-07-29T20:22:50.667Z,8.6
2022-07-29T20:24:50.519Z,8.7
2022-07-29T20:26:49.811Z,8.7
2022-07-29T20:28:49.941Z,8.6
2022-07-29T20:30:51.099Z,8.6
2022-07-29T20:32:50.210Z,8.6
2022-07-29T20:34:50.639Z,9.2
2022-07-29T20:36:49.847Z,8.9
2022-07-29T20:38:49.717Z,8.6
2022-07-29T20:40:49.948Z,8.7
2022-07-29T20:42:49.690Z,8.7
2022-07-29T20:44:49.736Z,9.0
2022-07-29T20:46:49.728Z,9.0
2022-07-29T20:48:49.834Z,8.9
2022-07-29T20:50:50.103Z,9.4
2022-07-29T20:52:50.183Z,9.9
2022-07-29T20:54:50.149Z,9.2
2022-07-29T20:56:50.472Z,9.2
2022-07-29T20:58:50.496Z,9.9
2022-07-29T21:00:50.442Z,9.2
2022-07-29T21:02:50.555Z,8.5
2022-07-29T21:04:50.159Z,8.5
2022-07-29T21:06:51.370Z,8.1
2022-07-29T21:08:50.384Z,8.2
2022-07-29T21:10:49.861Z,8.2
2022-07-29T21:12:50.889Z,8.5
2022-07-29T21:14:49.763Z,8.2
2022-07-29T21:16:50.027Z,8.0
2022-07-29T21:18:50.172Z,8.1
2022-07-29T21:20:50.021Z,7.9
2022-07-29T21:22:50.036Z,8.4
2022-07-29T21:24:50.094Z,8.4
2022-07-29T21:27:19.522Z,8.2
2022-07-29T21:28:50.756Z,7.8
2022-07-29T21:30:49.680Z,7.8
2022-07-29T21:32:50.705Z,7.8
2022-07-29T21:34:50.576Z,7.8
2022-07-29T21:36:49.770Z,9.2
2022-07-29T21:38:50.661Z,8.0
2022-07-29T21:40:49.725Z,8.5
2022-07-29T21:42:50.621Z,8.5
2022-07-29T21:44:50.664Z,7.9
2022-07-29T21:46:49.769Z,8.4
2022-07-29T21:48:49.829Z,7.2
2022-07-29T21:50:50.105Z,7.6
2022-07-29T21:52:50.046Z,7.6
2022-07-29T21:54:49.926Z,7.6
2022-07-29T21:57:00.213Z,8.1
2022-07-29T21:58:49.807Z,8.0
2022-07-29T22:00:49.721Z,8.0
2022-07-29T22:02:50.634Z,8.1
2022-07-29T22:04:50.032Z,8.1
2022-07-29T22:06:50.522Z,8.1
2022-07-29T22:08:49.867Z,8.5
2022-07-29T22:10:49.892Z,8.5
2022-07-29T22:12:49.871Z,8.3
2022-07-29T22:14:49.798Z,7.8
2022-07-29T22:16:50.282Z,7.3
2022-07-29T22:18:50.424Z,7.2
2022-07-29T22:20:50.301Z,7.2
2022-07-29T22:22:50.202Z,8.2
2022-07-29T22:24:50.208Z,7.8
2022-07-29T22:26:50.422Z,7.8
2022-07-29T22:28:50.301Z,7.9
2022-07-29T22:30:50.455Z,8.1
2022-07-29T22:32:50.592Z,8.1
2022-07-29T22:34:50.276Z,8.1
2022-07-29T22:36:50.579Z,8.2
2022-07-29T22:38:52.303Z,7.9
2022-07-29T22:40:50.923Z,7.9
2022-07-29T22:42:49.876Z,8.4
2022-07-29T22:44:49.722Z,8.2
2022-07-29T22:46:50.031Z,8.2
2022-07-29T22:48:50.179Z,8.2
2022-07-29T22:50:50.509Z,8.7
2022-07-29T22:52:50.531Z,8.3
2022-07-29T22:54:50.482Z,8.3
2022-07-29T22:56:50.550Z,9.1
2022-07-29T22:58:50.540Z,9.1
2022-07-29T23:00:50.620Z,8.6
2022-07-29T23:02:49.947Z,8.6
2022-07-29T23:04:50.530Z,8.5
2022-07-29T23:06:49.810Z,8.7
2022-07-29T23:08:49.712Z,8.7
2022-07-29T23:10:50.547Z,8.6
2022-07-29T23:12:50.639Z,8.4
2022-07-29T23:14:49.688Z,8.4
2022-07-29T23:16:50.086Z,8.7
2022-07-29T23:18:52.119Z,8.3
2022-07-29T23:20:50.404Z,8.3
2022-07-29T23:22:50.508Z,8.5
2022-07-29T23:24:50.495Z,8.7
2022-07-29T23:26:51.545Z,8.7
2022-07-29T23:28:50.537Z,8.3
2022-07-29T23:30:50.598Z,8.3
2022-07-29T23:32:49.869Z,8.5
2022-07-29T23:34:50.168Z,8.5
2022-07-29T23:36:50.481Z,8.6
2022-07-29T23:38:50.379Z,9.1
2022-07-29T23:40:50.375Z,9.1
2022-07-29T23:42:50.308Z,9.2
2022-07-29T23:44:50.462Z,8.2
2022-07-29T23:46:50.037Z,8.5
2022-07-29T23:48:50.736Z,8.5
2022-07-29T23:50:49.983Z,9.2
2022-07-29T23:52:49.890Z,8.9
2022-07-29T23:54:49.793Z,8.8
2022-07-29T23:56:50.178Z,8.3
2022-07-29T23:58:50.034Z,8.3
